Current Weather

Atar

Atar, Mauritania (GQPA)

Report from: Tuesday, July 16, 2024 9:00 AM GMT
Current time: Tuesday, July 16, 2024 3:11 PM GMT

Nearby weather – Weather history – Daily summaries
Weather forecast

Temperature20.0°C (68.0°F)
Dew point18.0°C (64.4°F)
Winds 10 kts (5.1 m/s, 11.5 mph) Vrb
Winds variableWinds variable from South (190°) to West (270°)
Visibility4.3 mi. (7 km)
Altimeter30.00 in.Hg (1016 mB)
Relative humidity88 %
Density altitude774 ft. (236 m)
Flight conditions Marginal Visual Meteorological Conditions
Raw dataGQPA 160900Z 22010KT 190V270 7000 NSC 20/18 Q1016
An error has occurred. This application may no longer respond until reloaded. Reload 🗙